createdAt,value
2023-02-14T00:01:12.430Z,80.80
2023-02-14T00:03:40.274Z,80.70
2023-02-14T00:06:09.867Z,80.60
2023-02-14T00:08:37.278Z,80.50
2023-02-14T00:11:05.548Z,80.50
2023-02-14T00:13:32.916Z,80.60
2023-02-14T00:16:00.126Z,80.60
2023-02-14T00:18:47.578Z,80.70
2023-02-14T00:21:14.591Z,80.80
2023-02-14T00:23:41.503Z,80.90
2023-02-14T00:26:15.174Z,81.10
2023-02-14T00:28:43.312Z,81.20
2023-02-14T00:31:10.497Z,81.30
2023-02-14T00:33:37.990Z,81.40
2023-02-14T00:36:07.197Z,81.50
2023-02-14T00:38:34.750Z,81.70
2023-02-14T00:41:02.226Z,81.80
2023-02-14T00:43:29.312Z,81.80
2023-02-14T00:45:57.866Z,81.90
2023-02-14T00:48:25.243Z,81.90
2023-02-14T00:50:52.283Z,81.90
2023-02-14T00:53:19.370Z,81.90
2023-02-14T00:55:47.176Z,81.90
2023-02-14T00:58:15.183Z,81.90
2023-02-14T01:00:42.192Z,81.90
2023-02-14T01:03:09.246Z,81.90
2023-02-14T01:05:36.298Z,81.90
2023-02-14T01:08:04.630Z,81.80
2023-02-14T01:10:32.032Z,81.80
2023-02-14T01:12:59.284Z,81.70
2023-02-14T01:15:27.961Z,81.70
2023-02-14T01:17:55.002Z,81.60
2023-02-14T01:20:22.395Z,81.50
2023-02-14T01:22:49.434Z,81.40
2023-02-14T01:25:17.689Z,81.30
2023-02-14T01:27:44.770Z,81.30
2023-02-14T01:30:14.401Z,81.20
2023-02-14T01:32:42.478Z,81.10
2023-02-14T01:35:09.935Z,81.00
2023-02-14T01:37:37.464Z,81.00
2023-02-14T01:40:06.428Z,81.10
2023-02-14T01:42:34.747Z,81.20
2023-02-14T01:45:10.014Z,81.40
2023-02-14T01:47:43.348Z,81.40
2023-02-14T01:50:33.945Z,81.50
2023-02-14T01:53:06.350Z,81.50
2023-02-14T01:55:42.218Z,81.60
2023-02-14T01:58:16.876Z,81.60
2023-02-14T02:00:59.948Z,81.70
2023-02-14T02:03:33.522Z,81.70
2023-02-14T02:06:20.781Z,81.70
2023-02-14T02:09:08.559Z,81.70
2023-02-14T02:11:35.863Z,81.70
2023-02-14T02:14:03.994Z,81.70
2023-02-14T02:16:34.112Z,81.60
2023-02-14T02:19:24.716Z,81.60
2023-02-14T02:22:28.779Z,81.50
2023-02-14T02:25:04.464Z,81.40
2023-02-14T02:27:34.338Z,81.30
2023-02-14T02:30:19.793Z,81.20
2023-02-14T02:33:28.476Z,81.10
2023-02-14T02:36:34.805Z,81.00
2023-02-14T02:39:07.603Z,80.80
2023-02-14T02:41:53.334Z,80.70
2023-02-14T02:44:53.326Z,80.60
2023-02-14T02:47:36.703Z,80.50
2023-02-14T02:50:52.365Z,80.40
2023-02-14T02:53:33.283Z,80.40
2023-02-14T02:56:27.816Z,80.30
2023-02-14T02:59:21.069Z,80.30
2023-02-14T03:02:05.285Z,80.20
2023-02-14T03:04:54.709Z,80.10
2023-02-14T03:07:41.214Z,80.10
2023-02-14T03:10:19.785Z,80.10
2023-02-14T03:13:01.800Z,80.00
2023-02-14T03:16:05.922Z,80.00
2023-02-14T03:19:33.614Z,80.00
2023-02-14T03:22:38.318Z,79.90
2023-02-14T03:25:21.121Z,79.70
2023-02-14T03:27:57.220Z,79.70
2023-02-14T03:30:59.005Z,79.70
2023-02-14T03:33:33.602Z,79.70
2023-02-14T03:36:09.840Z,79.70
2023-02-14T03:38:48.156Z,79.70
2023-02-14T03:41:21.872Z,79.70
2023-02-14T03:43:51.251Z,79.70
2023-02-14T03:46:22.112Z,79.70
2023-02-14T03:48:51.618Z,79.70
2023-02-14T03:51:20.764Z,79.70
2023-02-14T03:53:52.181Z,79.80
2023-02-14T03:56:26.181Z,79.80
2023-02-14T03:58:58.319Z,79.70
2023-02-14T04:01:42.232Z,79.70
2023-02-14T04:04:09.891Z,79.70
2023-02-14T04:06:36.868Z,79.70
2023-02-14T04:09:04.233Z,79.60
2023-02-14T04:11:35.163Z,79.60
2023-02-14T04:14:02.915Z,79.70
2023-02-14T04:16:30.199Z,79.70
2023-02-14T04:19:16.026Z,79.70
2023-02-14T04:21:43.011Z,79.70
2023-02-14T04:24:10.053Z,79.70
2023-02-14T04:26:37.081Z,79.60
2023-02-14T04:29:04.005Z,79.60
2023-02-14T04:31:31.111Z,79.50
2023-02-14T04:33:58.188Z,79.50
2023-02-14T04:36:25.219Z,79.50
2023-02-14T04:38:52.180Z,79.30
2023-02-14T04:41:19.195Z,79.20
2023-02-14T04:43:46.164Z,79.20
2023-02-14T04:46:13.309Z,79.30
2023-02-14T04:48:40.354Z,79.30
2023-02-14T04:51:07.319Z,79.30
2023-02-14T04:53:40.191Z,79.40
2023-02-14T04:56:08.105Z,79.40
2023-02-14T04:58:35.449Z,79.40
2023-02-14T05:01:02.956Z,79.40
2023-02-14T05:03:30.076Z,79.50
2023-02-14T05:05:57.041Z,79.60
2023-02-14T05:08:24.049Z,79.70
2023-02-14T05:10:51.081Z,79.80
2023-02-14T05:13:18.175Z,79.90
2023-02-14T05:15:46.320Z,80.10
2023-02-14T05:18:13.294Z,80.20
2023-02-14T05:20:40.294Z,80.20
2023-02-14T05:23:13.666Z,80.30
2023-02-14T05:25:41.649Z,80.40
2023-02-14T05:28:08.957Z,80.50
2023-02-14T05:30:37.459Z,80.60
2023-02-14T05:33:04.678Z,80.60
2023-02-14T05:35:32.430Z,80.60
2023-02-14T05:37:59.720Z,80.60
2023-02-14T05:40:26.738Z,80.60
2023-02-14T05:42:55.836Z,80.50
2023-02-14T05:45:23.656Z,80.50
2023-02-14T05:47:51.237Z,80.40
2023-02-14T05:50:19.030Z,80.40
2023-02-14T05:52:46.005Z,80.30
2023-02-14T05:55:13.182Z,80.30
2023-02-14T05:57:40.184Z,80.20
2023-02-14T06:00:08.785Z,80.20
2023-02-14T06:02:41.937Z,80.20
2023-02-14T06:05:09.091Z,80.10
2023-02-14T06:07:36.098Z,80.10
2023-02-14T06:10:04.244Z,80.00
2023-02-14T06:12:31.167Z,80.00
2023-02-14T06:14:58.140Z,80.00
2023-02-14T06:17:25.138Z,79.90
2023-02-14T06:19:53.438Z,79.90
2023-02-14T06:22:21.510Z,79.90
2023-02-14T06:24:48.464Z,80.00
2023-02-14T06:27:15.506Z,80.10
2023-02-14T06:29:42.698Z,80.20
2023-02-14T06:32:09.781Z,80.30
2023-02-14T06:34:37.070Z,80.40
2023-02-14T06:37:03.981Z,80.50
2023-02-14T06:39:30.900Z,80.50
2023-02-14T06:41:57.838Z,80.70
2023-02-14T06:44:24.859Z,80.80
2023-02-14T06:46:51.898Z,80.80
2023-02-14T06:49:18.922Z,80.90
2023-02-14T06:51:45.845Z,80.90
2023-02-14T06:54:12.805Z,80.90
2023-02-14T06:56:39.822Z,81.00
2023-02-14T06:59:06.890Z,81.00
2023-02-14T07:01:34.057Z,81.10
2023-02-14T07:04:01.120Z,81.10
2023-02-14T07:06:28.090Z,81.10
2023-02-14T07:08:55.107Z,81.10
2023-02-14T07:11:22.127Z,81.00
2023-02-14T07:13:49.589Z,81.00
2023-02-14T07:16:16.707Z,81.00
2023-02-14T07:18:43.762Z,81.00
2023-02-14T07:21:10.746Z,81.00
2023-02-14T07:23:37.761Z,81.00
2023-02-14T07:26:04.909Z,81.00
2023-02-14T07:28:33.535Z,80.90
2023-02-14T07:31:01.707Z,80.90
2023-02-14T07:33:29.475Z,80.90
2023-02-14T07:35:56.512Z,80.90
2023-02-14T07:38:24.534Z,80.90
2023-02-14T07:40:53.997Z,80.80
2023-02-14T07:43:20.948Z,80.80
2023-02-14T07:45:48.862Z,80.80
2023-02-14T07:48:15.889Z,80.80
2023-02-14T07:50:43.066Z,80.80
2023-02-14T07:53:10.386Z,80.90
2023-02-14T07:55:37.439Z,80.90
2023-02-14T07:58:04.512Z,80.90
2023-02-14T08:00:31.477Z,80.90
2023-02-14T08:03:01.334Z,80.80
2023-02-14T08:05:28.426Z,80.80
2023-02-14T08:07:55.402Z,80.80
2023-02-14T08:10:22.406Z,80.80
2023-02-14T08:13:01.391Z,80.90
2023-02-14T08:15:52.159Z,81.00
2023-02-14T08:18:21.206Z,81.00
2023-02-14T08:20:49.958Z,81.00
2023-02-14T08:23:19.180Z,81.10
2023-02-14T08:25:48.271Z,81.10
2023-02-14T08:28:15.352Z,81.20
2023-02-14T08:30:43.979Z,81.30
2023-02-14T08:33:11.288Z,81.40
2023-02-14T08:35:38.770Z,81.50
2023-02-14T08:38:06.057Z,81.60
2023-02-14T08:40:35.113Z,81.70
2023-02-14T08:43:02.184Z,81.80
2023-02-14T08:45:29.224Z,81.90
2023-02-14T08:48:10.333Z,82.10
2023-02-14T08:50:38.325Z,82.20
2023-02-14T08:53:09.905Z,82.30
2023-02-14T08:55:37.480Z,82.50
2023-02-14T08:58:04.966Z,82.60
2023-02-14T09:00:32.613Z,82.70
2023-02-14T09:02:59.713Z,82.80
2023-02-14T09:05:26.819Z,82.90
2023-02-14T09:07:56.499Z,83.00
2023-02-14T09:10:24.877Z,83.30
2023-02-14T09:12:52.377Z,83.50
2023-02-14T09:15:19.653Z,83.60
2023-02-14T09:17:47.584Z,83.80
2023-02-14T09:20:15.773Z,84.00
2023-02-14T09:22:43.549Z,84.10
2023-02-14T09:25:11.126Z,84.30
2023-02-14T09:27:38.381Z,84.50
2023-02-14T09:30:09.568Z,84.70
2023-02-14T09:32:36.826Z,85.20
2023-02-14T09:35:22.222Z,85.50
2023-02-14T09:37:49.265Z,85.50
2023-02-14T09:40:19.393Z,85.70
2023-02-14T09:43:10.192Z,85.80
2023-02-14T09:45:38.402Z,86.00
2023-02-14T09:48:26.069Z,86.10
2023-02-14T09:51:01.513Z,86.30
2023-02-14T09:53:35.406Z,86.40
2023-02-14T09:56:20.890Z,86.40
2023-02-14T09:59:22.857Z,86.50
2023-02-14T10:02:26.923Z,86.70
2023-02-14T10:05:06.495Z,86.80
2023-02-14T10:08:03.071Z,86.90
2023-02-14T10:10:42.109Z,86.90
2023-02-14T10:13:35.461Z,86.90
2023-02-14T10:16:09.923Z,86.80
2023-02-14T10:18:40.795Z,86.80
2023-02-14T10:21:09.393Z,86.80
2023-02-14T10:23:41.217Z,86.70
2023-02-14T10:26:22.549Z,86.60
2023-02-14T10:28:50.839Z,86.50
2023-02-14T10:31:41.075Z,86.30
2023-02-14T10:34:22.944Z,86.10
2023-02-14T10:37:05.338Z,86.00
2023-02-14T10:40:10.700Z,85.70
2023-02-14T10:42:55.813Z,85.60
2023-02-14T10:45:47.769Z,85.50
2023-02-14T10:48:32.937Z,85.30
2023-02-14T10:51:11.188Z,85.10
2023-02-14T10:53:47.186Z,84.90
2023-02-14T10:56:20.037Z,84.60
2023-02-14T10:58:50.690Z,84.30
2023-02-14T11:01:18.698Z,84.10
2023-02-14T11:04:04.222Z,83.90
2023-02-14T11:06:31.879Z,83.80
2023-02-14T11:08:59.290Z,83.40
2023-02-14T11:11:37.938Z,83.30
2023-02-14T11:14:28.842Z,83.20
2023-02-14T11:16:57.788Z,82.90
2023-02-14T11:19:29.373Z,82.60
2023-02-14T11:21:58.731Z,82.40
2023-02-14T11:24:28.704Z,82.40
2023-02-14T11:27:12.634Z,82.20
2023-02-14T11:29:39.595Z,82.00
2023-02-14T11:32:25.315Z,81.80
2023-02-14T11:35:02.762Z,81.70
2023-02-14T11:37:37.148Z,81.60
2023-02-14T11:40:06.007Z,81.40
2023-02-14T11:42:41.754Z,81.20
2023-02-14T11:45:32.281Z,81.20
2023-02-14T11:48:22.357Z,81.00
2023-02-14T11:51:14.683Z,80.70
2023-02-14T11:53:48.965Z,80.60
2023-02-14T11:56:18.144Z,80.60
2023-02-14T11:58:45.051Z,80.50
2023-02-14T12:01:22.104Z,80.40
2023-02-14T12:03:50.480Z,80.40
2023-02-14T12:06:26.278Z,80.40
2023-02-14T12:09:23.929Z,80.30
2023-02-14T12:12:15.626Z,79.90
2023-02-14T12:14:42.818Z,79.70
2023-02-14T12:17:15.207Z,79.40
2023-02-14T12:20:06.197Z,79.30
2023-02-14T12:23:11.898Z,79.10
2023-02-14T12:25:56.914Z,78.80
2023-02-14T12:28:31.492Z,78.20
2023-02-14T12:30:59.467Z,77.60
2023-02-14T12:33:26.734Z,76.90
2023-02-14T12:36:41.160Z,76.70
2023-02-14T12:39:35.692Z,76.70
2023-02-14T12:42:32.998Z,76.60
2023-02-14T12:45:12.503Z,76.10
2023-02-14T12:47:52.541Z,75.30
2023-02-14T12:50:23.474Z,74.80
2023-02-14T12:52:50.463Z,74.60
2023-02-14T12:55:26.381Z,74.20
2023-02-14T12:58:02.539Z,73.80
2023-02-14T13:01:04.106Z,73.30
2023-02-14T13:03:54.714Z,72.90
2023-02-14T13:06:31.767Z,72.90
2023-02-14T13:09:04.394Z,72.70
2023-02-14T13:11:36.930Z,72.50
2023-02-14T13:14:25.410Z,72.10
2023-02-14T13:17:10.566Z,72.00
2023-02-14T13:20:12.537Z,71.80
2023-02-14T13:22:41.661Z,71.80
2023-02-14T13:25:24.459Z,71.70
2023-02-14T13:27:51.699Z,71.20
2023-02-14T13:30:29.958Z,70.60
2023-02-14T13:33:00.691Z,70.10
2023-02-14T13:35:30.205Z,70.40
2023-02-14T13:38:02.223Z,70.20
2023-02-14T13:40:31.218Z,70.00
2023-02-14T13:43:00.441Z,69.60
2023-02-14T13:45:35.034Z,69.20
2023-02-14T13:48:15.334Z,69.10
2023-02-14T13:51:02.618Z,69.00
2023-02-14T13:53:49.102Z,68.90
2023-02-14T13:56:16.084Z,69.00
2023-02-14T13:58:52.241Z,68.90
2023-02-14T14:01:48.057Z,68.80
2023-02-14T14:04:30.468Z,68.60
2023-02-14T14:07:03.413Z,68.10
2023-02-14T14:09:42.577Z,68.10
2023-02-14T14:12:27.749Z,68.20
2023-02-14T14:15:07.187Z,68.20
2023-02-14T14:17:46.579Z,68.20
2023-02-14T14:20:16.599Z,68.20
2023-02-14T14:22:53.404Z,68.20
2023-02-14T14:25:33.471Z,68.20
2023-02-14T14:28:01.336Z,68.30
2023-02-14T14:30:32.961Z,68.40
2023-02-14T14:33:23.662Z,68.40
2023-02-14T14:36:03.028Z,68.20
2023-02-14T14:38:32.075Z,68.10
2023-02-14T14:41:01.014Z,67.90
2023-02-14T14:43:30.280Z,67.60
2023-02-14T14:45:59.909Z,67.40
2023-02-14T14:48:38.355Z,67.10
2023-02-14T14:51:07.833Z,67.00
2023-02-14T14:53:52.354Z,67.00
2023-02-14T14:56:25.119Z,67.00
2023-02-14T14:58:52.827Z,66.90
2023-02-14T15:01:31.857Z,67.00
2023-02-14T15:04:32.502Z,67.00
2023-02-14T15:07:19.410Z,66.80
2023-02-14T15:09:46.399Z,66.80
2023-02-14T15:12:39.436Z,66.90
2023-02-14T15:15:10.132Z,67.00
2023-02-14T15:17:38.833Z,67.20
2023-02-14T15:20:20.305Z,67.20
2023-02-14T15:22:49.851Z,67.40
2023-02-14T15:25:30.641Z,67.60
2023-02-14T15:27:57.634Z,67.80
2023-02-14T15:30:37.945Z,68.00
2023-02-14T15:33:07.950Z,68.20
2023-02-14T15:35:42.310Z,68.40
2023-02-14T15:38:11.927Z,68.40
2023-02-14T15:40:40.370Z,68.30
2023-02-14T15:43:18.138Z,68.20
2023-02-14T15:45:47.833Z,68.30
2023-02-14T15:48:30.427Z,68.40
2023-02-14T15:50:59.850Z,68.40
2023-02-14T15:53:48.778Z,68.40
2023-02-14T15:56:28.179Z,68.40
2023-02-14T15:59:04.625Z,68.40
2023-02-14T16:01:34.315Z,68.40
2023-02-14T16:04:05.410Z,68.50
2023-02-14T16:06:50.166Z,68.60
2023-02-14T16:09:26.349Z,68.50
2023-02-14T16:11:54.155Z,68.60
2023-02-14T16:14:37.578Z,68.70
2023-02-14T16:17:06.848Z,68.70
2023-02-14T16:19:45.212Z,68.80
2023-02-14T16:22:25.247Z,68.90
2023-02-14T16:24:52.288Z,69.10
2023-02-14T16:27:19.467Z,69.20
2023-02-14T16:29:46.493Z,69.40
2023-02-14T16:32:20.137Z,69.50
2023-02-14T16:34:48.329Z,69.60
2023-02-14T16:37:35.135Z,69.80
2023-02-14T16:40:02.598Z,69.90
2023-02-14T16:42:29.600Z,70.00
2023-02-14T16:44:57.898Z,70.10
2023-02-14T16:47:27.747Z,70.20
2023-02-14T16:49:54.854Z,70.30
2023-02-14T16:52:25.594Z,70.40
2023-02-14T16:54:53.560Z,70.60
2023-02-14T16:57:27.915Z,70.80
2023-02-14T16:59:56.614Z,70.90
2023-02-14T17:02:28.415Z,71.00
2023-02-14T17:04:56.070Z,71.10
2023-02-14T17:07:23.463Z,71.10
2023-02-14T17:09:55.125Z,71.10
2023-02-14T17:12:29.544Z,71.10
2023-02-14T17:15:00.835Z,71.10
2023-02-14T17:17:27.982Z,71.20
2023-02-14T17:19:54.979Z,71.30
2023-02-14T17:22:22.029Z,71.40
2023-02-14T17:24:48.978Z,71.60
2023-02-14T17:27:16.008Z,71.70
2023-02-14T17:29:43.009Z,71.80
2023-02-14T17:32:14.082Z,71.80
2023-02-14T17:34:41.814Z,71.90
2023-02-14T17:37:09.191Z,72.10
2023-02-14T17:39:36.177Z,72.30
2023-02-14T17:42:03.268Z,72.30
2023-02-14T17:44:32.541Z,72.50
2023-02-14T17:46:59.520Z,72.60
2023-02-14T17:49:26.803Z,72.80
2023-02-14T17:51:55.082Z,72.80
2023-02-14T17:54:22.793Z,72.90
2023-02-14T17:56:50.121Z,72.90
2023-02-14T17:59:17.132Z,72.90
2023-02-14T18:01:44.230Z,72.90
2023-02-14T18:04:11.343Z,73.00
2023-02-14T18:06:38.270Z,73.10
2023-02-14T18:09:06.432Z,73.20
2023-02-14T18:11:33.477Z,73.30
2023-02-14T18:14:01.762Z,73.50
2023-02-14T18:16:29.304Z,73.50
2023-02-14T18:18:56.430Z,73.70
2023-02-14T18:21:24.626Z,73.80
2023-02-14T18:23:52.018Z,73.90
2023-02-14T18:26:19.337Z,73.90
2023-02-14T18:28:46.599Z,73.90
2023-02-14T18:31:16.644Z,73.80
2023-02-14T18:33:44.652Z,73.80
2023-02-14T18:36:17.462Z,73.80
2023-02-14T18:38:48.987Z,73.90
2023-02-14T18:41:18.374Z,74.00
2023-02-14T18:43:45.602Z,74.10
2023-02-14T18:46:15.378Z,74.10
2023-02-14T18:48:43.076Z,74.20
2023-02-14T18:51:12.967Z,74.20
2023-02-14T18:53:40.764Z,74.20
2023-02-14T18:56:10.684Z,74.30
2023-02-14T18:58:38.463Z,74.40
2023-02-14T19:01:16.899Z,74.40
2023-02-14T19:03:45.096Z,74.50
2023-02-14T19:06:13.027Z,74.50
2023-02-14T19:08:40.785Z,74.50
2023-02-14T19:11:13.962Z,74.60
2023-02-14T19:13:45.802Z,74.70
2023-02-14T19:16:15.839Z,74.90
2023-02-14T19:18:43.562Z,74.90
2023-02-14T19:21:14.757Z,75.00
2023-02-14T19:23:42.025Z,75.00
2023-02-14T19:26:14.225Z,75.10
2023-02-14T19:28:42.174Z,75.00
2023-02-14T19:31:10.308Z,75.10
2023-02-14T19:33:42.722Z,75.20
2023-02-14T19:36:14.834Z,75.40
2023-02-14T19:38:46.866Z,75.50
2023-02-14T19:41:21.163Z,75.80
2023-02-14T19:43:49.140Z,75.90
2023-02-14T19:46:18.135Z,76.00
2023-02-14T19:48:46.058Z,76.00
2023-02-14T19:51:16.456Z,76.00
2023-02-14T19:53:44.123Z,76.10
2023-02-14T19:56:11.805Z,76.10
2023-02-14T19:58:39.152Z,76.10
2023-02-14T20:01:06.375Z,76.10
2023-02-14T20:03:35.305Z,76.10
2023-02-14T20:06:02.931Z,76.10
2023-02-14T20:08:29.862Z,76.00
2023-02-14T20:10:56.981Z,75.90
2023-02-14T20:13:23.990Z,75.80
2023-02-14T20:15:51.558Z,75.80
2023-02-14T20:18:18.478Z,75.80
2023-02-14T20:21:04.675Z,75.80
2023-02-14T20:23:33.161Z,75.80
2023-02-14T20:26:00.238Z,75.80
2023-02-14T20:28:27.251Z,75.80
2023-02-14T20:30:54.471Z,75.80
2023-02-14T20:33:21.545Z,75.90
2023-02-14T20:35:48.510Z,75.90
2023-02-14T20:38:16.622Z,76.00
2023-02-14T20:40:44.582Z,76.00
2023-02-14T20:43:11.685Z,76.00
2023-02-14T20:45:39.061Z,76.00
2023-02-14T20:48:08.111Z,76.10
2023-02-14T20:50:35.596Z,76.10
2023-02-14T20:53:02.639Z,76.10
2023-02-14T20:55:31.227Z,76.20
2023-02-14T20:58:02.467Z,76.20
2023-02-14T21:00:30.144Z,76.20
2023-02-14T21:02:58.824Z,76.20
2023-02-14T21:05:26.167Z,76.20
2023-02-14T21:07:53.119Z,76.20
2023-02-14T21:10:20.224Z,76.20
2023-02-14T21:12:48.467Z,76.10
2023-02-14T21:15:18.087Z,76.00
2023-02-14T21:17:45.165Z,76.00
2023-02-14T21:20:12.825Z,76.10
2023-02-14T21:22:39.868Z,76.20
2023-02-14T21:25:07.790Z,76.20
2023-02-14T21:27:34.801Z,76.10
2023-02-14T21:30:03.163Z,76.10
2023-02-14T21:32:30.301Z,76.10
2023-02-14T21:34:57.372Z,76.10
2023-02-14T21:37:24.325Z,76.10
2023-02-14T21:39:51.367Z,76.00
2023-02-14T21:42:18.802Z,76.00
2023-02-14T21:45:04.216Z,76.00
2023-02-14T21:47:31.406Z,76.00
2023-02-14T21:50:17.376Z,76.00
2023-02-14T21:52:44.602Z,76.00
2023-02-14T21:55:11.587Z,75.90
2023-02-14T21:57:38.563Z,75.90
2023-02-14T22:00:06.679Z,75.90
2023-02-14T22:02:39.905Z,76.00
2023-02-14T22:05:08.064Z,75.90
2023-02-14T22:07:35.326Z,75.90
2023-02-14T22:10:03.505Z,75.90
2023-02-14T22:12:30.630Z,75.90
2023-02-14T22:15:00.328Z,76.00
2023-02-14T22:17:27.982Z,76.00
2023-02-14T22:19:55.157Z,76.00
2023-02-14T22:22:22.185Z,76.00
2023-02-14T22:24:49.713Z,76.00
2023-02-14T22:27:16.756Z,76.00
2023-02-14T22:29:43.797Z,76.10
2023-02-14T22:32:10.841Z,76.20
2023-02-14T22:34:37.930Z,76.30
2023-02-14T22:37:04.861Z,76.40
2023-02-14T22:39:31.832Z,76.40
2023-02-14T22:41:58.894Z,76.40
2023-02-14T22:44:26.012Z,76.40
2023-02-14T22:46:53.039Z,76.50
2023-02-14T22:49:20.170Z,76.50
2023-02-14T22:51:47.109Z,76.50
2023-02-14T22:54:15.583Z,76.50
2023-02-14T22:56:47.816Z,76.40
2023-02-14T22:59:23.644Z,76.40
2023-02-14T23:01:52.860Z,76.40
2023-02-14T23:04:22.283Z,76.40
2023-02-14T23:06:50.466Z,76.40
2023-02-14T23:09:17.516Z,76.40
2023-02-14T23:11:46.045Z,76.40
2023-02-14T23:14:33.123Z,76.30
2023-02-14T23:17:18.761Z,76.40
2023-02-14T23:20:04.668Z,76.30
2023-02-14T23:22:34.660Z,76.30
2023-02-14T23:25:05.338Z,76.30
2023-02-14T23:27:35.048Z,76.30
2023-02-14T23:30:03.211Z,76.30
2023-02-14T23:32:30.310Z,76.30
2023-02-14T23:34:58.388Z,76.30
2023-02-14T23:37:25.524Z,76.20
2023-02-14T23:39:52.609Z,76.20
2023-02-14T23:42:19.738Z,76.30
2023-02-14T23:44:47.516Z,76.30
2023-02-14T23:47:15.266Z,76.30
2023-02-14T23:49:43.020Z,76.30
2023-02-14T23:52:12.151Z,76.30
2023-02-14T23:54:39.516Z,76.30
2023-02-14T23:57:07.569Z,76.30
2023-02-14T23:59:35.347Z,76.20
